• Join FlightAware (Why Join?)
  • Login
  • US Flag 
01:19PM EDT


 

Airport Tracker/Info


-or-


 

Live Flight TrackerFlight Track Log ✈ SKQ227 ✈ 15-Jun-2013 ✈ KPWK - KOSU

Flight Track Log - Related Links

Times and Time Zones

All times are in EDT time to prevent confusion due to time zone crossing. See the SKQ227 flight status page for this flight to view local times or setup timezone preferences in your user account.

Time Position Orientation Groundspeed Altitude Reporting Facility
EDT Latitude Longitude Course Direction KTS MPH feet Rate Location/Type
11:39PM 42.1167 -87.8500 90° East 149 171 1,700  Level Chicago TRACON
11:40PM 42.1167 -87.8000 90° East 165 190 2,500 780 Climbing Chicago TRACON
11:41PM 42.1167 -87.7639 90° East 164 189 2,900 780 Climbing Chicago Center
11:42PM 42.1206 -87.6978 85° East 169 194 3,700 840 Climbing Chicago Center
11:43PM 42.1258 -87.6308 84° East 175 201 4,600 900 Climbing Chicago Center
11:44PM 42.1319 -87.5631 83° East 180 207 5,500 660 Climbing Chicago Center
11:45PM 42.1325 -87.4956 89° East 181 208 6,000 240 Climbing Chicago Center
11:46PM 42.1033 -87.4297 121° Southeast 203 234 6,000  Level Chicago Center
11:47PM 42.0736 -87.3667 122° Southeast 201 231 6,000  Level Chicago Center
11:48PM 42.0458 -87.3019 120° Southeast 200 230 6,000  Level Chicago Center
11:49PM 42.0181 -87.2372 120° Southeast 200 230 6,000 240 Level Chicago Center
11:50PM 41.9894 -87.1747 122° Southeast 198 228 6,500 540 Climbing Chicago Center
11:51PM 41.9642 -87.1169 120° Southeast 183 211 7,100 540 Climbing Chicago Center
11:52PM 41.9375 -87.0589 122° Southeast 181 208 7,700 600 Climbing Chicago Center
11:53PM 41.9119 -87.0008 121° Southeast 182 209 8,400 600 Climbing Chicago Center
11:54PM 41.8869 -86.9428 120° Southeast 181 208 9,000 240 Climbing Chicago Center
11:55PM 41.8581 -86.8764 120° Southeast 201 231 9,000  Level Chicago Center
11:56PM 41.8281 -86.8067 120° Southeast 214 246 9,100  Climbing Chicago Center
11:57PM 41.7989 -86.7397 120° Southeast 211 243 9,000 -60 Descending Chicago Center
11:58PM 41.7664 -86.6669 121° Southeast 209 241 9,000  Level Chicago Center
11:59PM 41.7372 -86.5997 120° Southeast 209 241 9,000  Level Chicago Center
12:00AM 41.7072 -86.5333 121° Southeast 209 241 9,000  Level Chicago Center
12:01AM 41.6769 -86.4669 121° Southeast 208 239 9,000  Level Chicago Center
12:02AM 41.6478 -86.3983 120° Southeast 212 244 9,000  Level Chicago Center
12:03AM 41.6108 -86.3192 122° Southeast 211 243 9,000  Level Chicago Center
12:04AM 41.5819 -86.2511 120° Southeast 211 243 9,000  Level Chicago Center
12:05AM 41.5511 -86.1847 122° Southeast 212 244 9,000  Level Chicago Center
12:06AM 41.5219 -86.1186 120° Southeast 208 239 9,000  Level Chicago Center
12:07AM 41.4906 -86.0514 122° Southeast 212 244 9,000  Level Chicago Center
12:08AM 41.4611 -85.9850 121° Southeast 209 241 9,000  Level Chicago Center
12:09AM 41.4311 -85.9175 121° Southeast 212 244 9,000  Level Chicago Center
12:10AM 41.4003 -85.8497 121° Southeast 215 247 9,000  Level Chicago Center
12:11AM 41.3697 -85.7833 122° Southeast 214 246 9,000  Level Chicago Center
12:12AM 41.3331 -85.7039 122° Southeast 211 243 9,000  Level Chicago Center
12:13AM 41.3028 -85.6364 121° Southeast 214 246 9,000  Level Chicago Center
12:14AM 41.2725 -85.5692 121° Southeast 215 247 9,000  Level Chicago Center
12:15AM 41.2419 -85.5028 121° Southeast 212 244 9,000  Level Chicago Center
12:16AM 41.2114 -85.4369 122° Southeast 210 242 9,000  Level Chicago Center
12:17AM 41.1828 -85.3739 121° Southeast 203 234 9,000  Level Chicago Center
12:18AM 41.1514 -85.3067 122° Southeast 213 245 9,000  Level Chicago Center
12:19AM 41.1211 -85.2400 121° Southeast 214 246 9,000  Level Chicago Center
12:20AM 41.0917 -85.1756 121° Southeast 209 241 9,000  Level Chicago Center
12:21AM 41.0611 -85.1097 122° Southeast 209 241 9,000  Level Chicago Center
12:22AM 41.0306 -85.0447 122° Southeast 209 241 9,000  Level Chicago Center
12:23AM 40.9997 -84.9786 122° Southeast 210 242 9,000  Level Chicago Center
12:24AM 40.9692 -84.9133 122° Southeast 210 242 9,000  Level Chicago Center
12:25AM 40.9381 -84.8475 122° Southeast 212 244 9,000  Level Chicago Center
12:26AM 40.9075 -84.7822 122° Southeast 210 242 9,000  Level Chicago Center
12:27AM 40.8767 -84.7167 122° Southeast 209 241 9,000 60 Level Chicago Center
12:28AM 40.8578 -84.6783 123° Southeast 210 242 9,100 60 Climbing Indianapolis Center
12:29AM 40.8269 -84.6117 121° Southeast 211 243 9,100  Level Indianapolis Center
12:30AM 40.7947 -84.5453 123° Southeast 212 244 9,100  Level Indianapolis Center
12:31AM 40.7636 -84.4794 122° Southeast 210 242 9,100  Level Indianapolis Center
12:32AM 40.7319 -84.4136 122° Southeast 210 242 9,100  Level Indianapolis Center
12:33AM 40.7011 -84.3481 122° Southeast 209 241 9,100  Level Indianapolis Center
12:33AM 40.6814 -84.3086 123° Southeast 208 239 9,100  Level Indianapolis Center
12:34AM 40.6753 -84.2939 119° Southeast 208 239 9,100  Level Indianapolis Center
12:34AM 40.6472 -84.2381 124° Southeast 209 241 9,100  Level Indianapolis Center
12:35AM 40.6436 -84.2278 115° Southeast 210 242 9,100  Level Indianapolis Center
12:35AM 40.6167 -84.1733 123° Southeast 211 243 9,100  Level Indianapolis Center
12:36AM 40.6119 -84.1625 120° Southeast 211 243 9,100  Level Indianapolis Center
12:36AM 40.5858 -84.1089 123° Southeast 209 241 9,100  Level Indianapolis Center
12:37AM 40.5803 -84.0964 120° Southeast 211 243 9,100  Level Indianapolis Center
12:37AM 40.5533 -84.0442 124° Southeast 212 244 9,100  Level Indianapolis Center
12:38AM 40.5483 -84.0311 117° Southeast 210 242 9,100  Level Indianapolis Center
12:38AM 40.5228 -83.9769 122° Southeast 210 242 9,100  Level Indianapolis Center
12:39AM 40.5167 -83.9656 125° Southeast 210 242 9,100  Level Indianapolis Center
12:39AM 40.4900 -83.9122 123° Southeast 211 243 9,100  Level Indianapolis Center
12:40AM 40.4861 -83.9000 113° Southeast 209 241 9,100  Level Indianapolis Center
12:41AM 40.4528 -83.8331 123° Southeast 215 247 9,100  Level Indianapolis Center
12:41AM 40.4264 -83.7833 125° Southeast 212 244 9,100  Level Indianapolis Center
12:42AM 40.4217 -83.7686 113° Southeast 209 241 9,100 -240 Level Indianapolis Center
12:42AM 40.3956 -83.7164 123° Southeast 214 246 8,900 -420 Descending Indianapolis Center
12:43AM 40.3892 -83.7006 118° Southeast 214 246 8,700 -600 Descending Indianapolis Center
12:43AM 40.3592 -83.6433 125° Southeast 230 265 8,300 -540 Descending Indianapolis Center
12:44AM 40.3544 -83.6294 114° Southeast 225 259 8,200 -540 Descending Indianapolis Center
12:44AM 40.3264 -83.5764 125° Southeast 222 255 7,800 -540 Descending Indianapolis Center
12:45AM 40.3208 -83.5619 117° Southeast 221 254 7,700 -1,320 Descending Indianapolis Center
12:45AM 40.2917 -83.5064 125° Southeast 229 264 6,500 -1,500 Descending Indianapolis Center
12:46AM 40.2856 -83.4908 117° Southeast 227 261 6,200 -420 Descending Indianapolis Center
12:47AM 40.2506 -83.4233 124° Southeast 228 262 6,000 -240 Descending Indianapolis Center